Newfane, New York
Current Conditions -  °F | °C
As of 6:16 PM on Tuesday 25 Nov 2014 (Local Time) from KIAG Reporting Station
Overcast Overcast  
Wind Chill: 23°   Ceiling: 4600
Heat Index: 34°   Visibility: 10mi
Dew Point: 25°   Wind: 18mph
Humidity: 70%   Direction: 260°W
Pressure: 30.08"   Gusts: 28mph
Location:  43.29°N, 78.71°W
Report Text: KIAG 252316Z 26016G24KT 10SM SCT025 OVC046 01/M04 A3008 RMK AO2 T00111039
Loading
Personal Weather Stations






























Interactive Weather Map New forecast layout! Learn more

10-Day Weather Forecast

Advertisements
Track Severe Weather on mobile